Time;durP1;ratioP1;P1;durP2;ratioP2;P2;SDS_P1;SDS_P2;PMS_P1;PMS_P2;Temp;Humidity;BMP_temperature;BMP_pressure;BME280_temperature;BME280_humidity;BME280_pressure;Samples;Min_cycle;Max_cycle;Signal;HPM_P1;HPM_P2
2023/12/24 00:01:22;;;;;;;1.20;1.20;;;8.70;99.90;;;;;;5054271;28;20571;-78
2023/12/24 00:03:47;;;;;;;0.70;0.70;;;8.70;99.90;;;;;;5050415;28;20045;-78
2023/12/24 00:06:13;;;;;;;1.52;1.42;;;8.70;99.90;;;;;;5057864;28;20056;-77
2023/12/24 00:08:39;;;;;;;0.60;0.60;;;8.70;99.90;;;;;;5054835;28;20123;-77
2023/12/24 00:11:05;;;;;;;1.40;1.40;;;8.70;99.90;;;;;;5053932;28;20574;-77
2023/12/24 00:13:31;;;;;;;1.00;0.90;;;8.70;99.90;;;;;;5051389;28;20045;-78
2023/12/24 00:15:57;;;;;;;0.75;0.75;;;8.70;99.90;;;;;;5064240;28;20137;-78
2023/12/24 00:18:23;;;;;;;1.00;0.52;;;8.70;99.90;;;;;;5048762;28;20060;-78
2023/12/24 00:20:49;;;;;;;1.08;1.02;;;8.70;99.90;;;;;;5053861;28;20040;-77
2023/12/24 00:23:14;;;;;;;0.88;0.80;;;8.70;99.90;;;;;;5053354;28;20055;-78
2023/12/24 00:25:42;;;;;;;2.28;1.60;;;8.70;99.90;;;;;;5052962;28;20045;-78
2023/12/24 00:28:08;;;;;;;0.93;0.63;;;8.70;99.90;;;;;;5054014;28;20036;-77
2023/12/24 00:30:35;;;;;;;1.13;1.10;;;8.70;99.90;;;;;;5057903;28;20044;-77
2023/12/24 00:33:00;;;;;;;0.45;0.45;;;8.70;99.90;;;;;;5050586;28;20116;-77
2023/12/24 00:35:27;;;;;;;0.68;0.68;;;8.70;99.90;;;;;;5048975;28;20174;-78
2023/12/24 00:37:52;;;;;;;0.50;0.50;;;8.70;99.90;;;;;;5051628;28;20041;-77
2023/12/24 00:40:19;;;;;;;1.10;0.85;;;8.70;99.90;;;;;;5052180;28;20501;-78
2023/12/24 00:42:45;;;;;;;1.75;1.30;;;8.70;99.90;;;;;;5051812;28;20059;-77
2023/12/24 00:45:11;;;;;;;0.75;0.75;;;8.70;99.90;;;;;;5047899;28;20037;-77
2023/12/24 00:47:37;;;;;;;0.70;0.70;;;8.70;99.90;;;;;;5053768;28;20099;-77
2023/12/24 00:50:04;;;;;;;1.27;1.20;;;8.70;99.90;;;;;;5056429;28;20374;-78
2023/12/24 00:52:30;;;;;;;1.95;1.45;;;8.70;99.90;;;;;;5033152;28;20056;-78
2023/12/24 00:54:56;;;;;;;0.73;0.73;;;8.70;99.90;;;;;;5052485;28;20056;-78
2023/12/24 00:57:21;;;;;;;2.47;1.85;;;8.70;99.90;;;;;;5049569;28;20090;-78
2023/12/24 00:59:47;;;;;;;2.78;1.55;;;8.80;99.90;;;;;;5050297;28;20091;-78
2023/12/24 01:02:12;;;;;;;0.70;0.70;;;8.70;99.90;;;;;;5054257;28;20041;-78
2023/12/24 01:04:38;;;;;;;0.88;0.85;;;8.80;99.90;;;;;;5048226;28;20036;-78
2023/12/24 01:07:03;;;;;;;0.52;0.52;;;8.70;99.90;;;;;;5054140;28;20104;-78
2023/12/24 01:09:29;;;;;;;3.50;2.25;;;8.70;99.90;;;;;;5048588;28;20461;-78
2023/12/24 01:11:55;;;;;;;0.52;0.52;;;8.70;99.90;;;;;;5052274;28;20029;-78
2023/12/24 01:14:20;;;;;;;0.88;0.88;;;8.80;99.90;;;;;;5056860;28;20059;-78
2023/12/24 01:16:46;;;;;;;1.95;1.13;;;8.70;99.90;;;;;;5055930;28;20135;-78
2023/12/24 01:19:12;;;;;;;1.05;1.05;;;8.70;99.90;;;;;;5052128;28;20049;-79
2023/12/24 01:21:38;;;;;;;1.27;1.15;;;8.70;99.90;;;;;;5053607;28;20444;-78
2023/12/24 01:24:05;;;;;;;1.23;1.23;;;8.80;99.90;;;;;;5056111;28;20109;-78
2023/12/24 01:26:32;;;;;;;0.70;0.70;;;8.80;99.90;;;;;;5048384;28;20041;-78
2023/12/24 01:28:58;;;;;;;0.75;0.75;;;8.80;99.90;;;;;;5050746;28;20048;-79
2023/12/24 01:31:23;;;;;;;0.40;0.40;;;8.80;99.90;;;;;;5048327;28;20493;-79
2023/12/24 01:33:50;;;;;;;0.70;0.70;;;8.80;99.90;;;;;;5058062;28;20040;-79
2023/12/24 01:36:16;;;;;;;1.48;1.38;;;8.80;99.90;;;;;;5052162;28;20086;-78
2023/12/24 01:38:43;;;;;;;0.90;0.90;;;8.80;99.90;;;;;;5053943;28;20036;-79
2023/12/24 01:41:08;;;;;;;0.85;0.85;;;8.80;99.90;;;;;;5054204;28;20044;-79
2023/12/24 01:43:34;;;;;;;1.10;0.60;;;8.80;99.90;;;;;;5039871;28;20425;-79
2023/12/24 01:45:59;;;;;;;0.52;0.52;;;8.80;99.90;;;;;;5061335;28;20076;-80
2023/12/24 01:48:25;;;;;;;0.40;0.40;;;8.80;99.90;;;;;;5056688;28;20039;-80
2023/12/24 01:50:51;;;;;;;0.77;0.77;;;8.80;99.90;;;;;;5052079;28;20055;-79
2023/12/24 01:53:18;;;;;;;0.50;0.50;;;8.70;99.90;;;;;;5056722;28;20436;-80
2023/12/24 01:55:46;;;;;;;0.70;0.70;;;8.80;99.90;;;;;;5035222;28;20052;-80
2023/12/24 01:58:12;;;;;;;0.93;0.93;;;8.80;99.90;;;;;;5053968;28;20563;-79
2023/12/24 02:00:37;;;;;;;0.50;0.50;;;8.80;99.90;;;;;;5051467;28;20053;-79
2023/12/24 02:03:04;;;;;;;0.50;0.50;;;8.70;99.90;;;;;;5059849;28;20048;-79
2023/12/24 02:05:30;;;;;;;0.80;0.80;;;8.80;99.90;;;;;;5052824;28;20045;-79
2023/12/24 02:07:56;;;;;;;2.00;0.77;;;8.80;99.90;;;;;;5050297;28;20417;-79
2023/12/24 02:10:22;;;;;;;0.50;0.50;;;8.80;99.90;;;;;;5054664;28;20059;-80
2023/12/24 02:12:49;;;;;;;0.70;0.70;;;8.80;99.90;;;;;;5037059;28;20714;-80
2023/12/24 02:15:15;;;;;;;0.68;0.68;;;8.80;99.90;;;;;;5057413;28;20044;-79
2023/12/24 02:17:43;;;;;;;1.00;0.93;;;8.80;99.90;;;;;;5053551;28;20089;-80
2023/12/24 02:20:09;;;;;;;0.60;0.60;;;8.80;99.90;;;;;;5057879;28;20048;-80
2023/12/24 02:22:34;;;;;;;0.40;0.40;;;8.80;99.90;;;;;;5051675;28;20321;-79
2023/12/24 02:25:02;;;;;;;0.75;0.75;;;8.80;99.90;;;;;;5055070;28;20048;-79
2023/12/24 02:27:47;;;;;;;0.40;0.40;;;8.80;99.90;;;;;;5055375;28;20040;-79
2023/12/24 02:30:19;;;;;;;0.57;0.57;;;8.80;99.90;;;;;;5055795;28;20101;-78
2023/12/24 02:32:57;;;;;;;0.43;0.43;;;8.80;99.90;;;;;;5035678;28;20052;-79
2023/12/24 02:35:27;;;;;;;1.43;1.23;;;8.90;99.90;;;;;;5051745;28;20155;-79
2023/12/24 02:37:53;;;;;;;0.70;0.70;;;8.80;99.90;;;;;;5056243;28;20085;-79
2023/12/24 02:40:19;;;;;;;0.47;0.47;;;8.90;99.90;;;;;;5057646;28;20044;-80
2023/12/24 02:42:44;;;;;;;0.50;0.50;;;8.90;99.90;;;;;;5059062;28;20055;-78
2023/12/24 02:45:10;;;;;;;0.60;0.60;;;8.90;99.90;;;;;;5054842;28;20036;-79
2023/12/24 02:47:37;;;;;;;0.50;0.50;;;8.90;99.90;;;;;;5050640;28;20403;-79
2023/12/24 02:50:04;;;;;;;0.40;0.40;;;8.90;99.90;;;;;;5060525;28;20045;-79
2023/12/24 02:52:29;;;;;;;0.70;0.70;;;8.90;99.90;;;;;;5047730;28;20052;-79
2023/12/24 02:54:56;;;;;;;0.70;0.70;;;8.90;99.90;;;;;;5053831;28;20044;-79
2023/12/24 02:57:22;;;;;;;3.38;0.68;;;8.90;99.90;;;;;;5056505;28;20078;-79
2023/12/24 02:59:47;;;;;;;0.88;0.88;;;8.90;99.90;;;;;;5051477;28;20048;-78
2023/12/24 03:02:13;;;;;;;0.65;0.65;;;8.90;99.90;;;;;;5061158;28;20048;-79
2023/12/24 03:04:39;;;;;;;0.60;0.60;;;8.90;99.90;;;;;;5060373;28;20051;-79
2023/12/24 03:07:05;;;;;;;0.50;0.50;;;9.00;99.90;;;;;;5052046;28;20088;-78
2023/12/24 03:09:30;;;;;;;0.40;0.40;;;8.90;99.90;;;;;;5051183;28;20045;-78
2023/12/24 03:11:56;;;;;;;0.50;0.50;;;8.90;99.90;;;;;;5061606;28;20591;-79
2023/12/24 03:14:22;;;;;;;0.63;0.60;;;8.90;99.90;;;;;;5049771;28;20036;-78
2023/12/24 03:16:48;;;;;;;10.57;0.98;;;8.90;99.90;;;;;;5053112;28;20041;-79
2023/12/24 03:19:14;;;;;;;0.60;0.60;;;9.00;99.90;;;;;;5040422;28;20044;-78
2023/12/24 03:21:43;;;;;;;0.35;0.35;;;8.90;99.90;;;;;;5065299;28;20039;-79
2023/12/24 03:24:09;;;;;;;0.73;0.73;;;8.90;99.90;;;;;;5050687;28;20127;-79
2023/12/24 03:26:35;;;;;;;0.47;0.47;;;8.90;99.90;;;;;;5055145;28;20056;-79
2023/12/24 03:29:00;;;;;;;1.08;1.08;;;8.90;99.90;;;;;;5057339;28;20098;-80
2023/12/24 03:31:26;;;;;;;0.35;0.35;;;8.90;99.90;;;;;;5051668;28;20048;-78
2023/12/24 03:33:53;;;;;;;0.50;0.50;;;8.90;99.90;;;;;;5031684;28;20131;-78
2023/12/24 03:36:18;;;;;;;0.50;0.50;;;8.90;99.90;;;;;;5054360;28;20052;-79
2023/12/24 03:38:44;;;;;;;0.50;0.50;;;9.00;99.90;;;;;;5061382;28;21055;-77
2023/12/24 03:41:10;;;;;;;0.40;0.40;;;9.00;99.90;;;;;;5049729;28;20144;-77
2023/12/24 03:43:36;;;;;;;0.60;0.60;;;9.00;99.90;;;;;;5055856;28;20047;-78
2023/12/24 03:46:02;;;;;;;0.50;0.50;;;9.00;99.90;;;;;;5055287;28;20049;-78
2023/12/24 03:48:29;;;;;;;0.40;0.40;;;9.00;99.90;;;;;;5059648;28;20052;-78
2023/12/24 03:50:55;;;;;;;0.55;0.55;;;9.00;99.90;;;;;;5055659;28;20485;-78
2023/12/24 03:53:20;;;;;;;0.50;0.50;;;9.00;99.90;;;;;;5048175;28;20051;-79
2023/12/24 03:55:46;;;;;;;0.40;0.40;;;9.00;99.90;;;;;;5048154;28;20037;-78
2023/12/24 03:58:11;;;;;;;0.40;0.40;;;9.00;99.90;;;;;;5045651;28;20029;-78
2023/12/24 04:00:37;;;;;;;0.40;0.40;;;9.00;99.90;;;;;;5056186;28;20490;-78
2023/12/24 04:03:03;;;;;;;0.57;0.57;;;9.00;99.90;;;;;;5047762;28;20064;-78
2023/12/24 04:05:28;;;;;;;0.63;0.63;;;9.00;99.90;;;;;;5051738;28;20106;-76
2023/12/24 04:07:54;;;;;;;0.40;0.40;;;9.00;99.90;;;;;;5050323;28;20075;-78
2023/12/24 04:10:20;;;;;;;0.70;0.70;;;9.00;99.90;;;;;;5052579;28;20113;-79
2023/12/24 04:12:45;;;;;;;0.52;0.52;;;9.00;99.90;;;;;;5058373;28;20048;-78
2023/12/24 04:15:11;;;;;;;0.40;0.40;;;9.00;99.90;;;;;;5053122;28;20049;-78
2023/12/24 04:17:37;;;;;;;0.60;0.60;;;9.00;99.90;;;;;;5049980;28;20041;-78
2023/12/24 04:20:04;;;;;;;0.40;0.40;;;9.00;99.90;;;;;;5053818;28;20555;-78
2023/12/24 04:22:30;;;;;;;0.40;0.40;;;9.00;99.90;;;;;;5055243;28;20153;-78
2023/12/24 04:24:57;;;;;;;0.40;0.40;;;9.10;99.90;;;;;;5067060;28;20044;-78
2023/12/24 04:27:22;;;;;;;0.40;0.40;;;9.10;99.90;;;;;;5059234;28;20048;-78
2023/12/24 04:29:48;;;;;;;0.52;0.52;;;9.10;99.90;;;;;;5064830;28;20424;-79
2023/12/24 04:32:14;;;;;;;0.40;0.40;;;9.10;99.90;;;;;;5061428;28;20078;-78
2023/12/24 04:34:39;;;;;;;0.40;0.40;;;9.10;99.90;;;;;;5050320;28;20033;-78
2023/12/24 04:37:05;;;;;;;0.63;0.63;;;9.10;99.90;;;;;;5057633;28;20043;-78
2023/12/24 04:39:30;;;;;;;1.45;0.73;;;9.10;99.90;;;;;;5059450;28;20053;-78
2023/12/24 04:41:56;;;;;;;0.77;0.77;;;9.10;99.90;;;;;;5055357;28;20049;-78
2023/12/24 04:44:21;;;;;;;0.70;0.70;;;9.10;99.90;;;;;;5053161;28;20073;-78
2023/12/24 04:46:48;;;;;;;0.70;0.70;;;9.10;99.90;;;;;;5051149;28;20131;-78
2023/12/24 04:49:13;;;;;;;0.60;0.60;;;9.10;99.90;;;;;;5055067;28;20413;-78
2023/12/24 04:51:41;;;;;;;0.45;0.45;;;9.20;99.90;;;;;;5049889;28;20072;-78
2023/12/24 04:54:06;;;;;;;0.60;0.60;;;9.10;99.90;;;;;;5055041;28;20129;-78
2023/12/24 04:56:32;;;;;;;0.50;0.50;;;9.10;99.90;;;;;;5055221;28;20075;-78
2023/12/24 04:58:59;;;;;;;0.70;0.70;;;9.10;99.90;;;;;;5046750;28;20049;-78
2023/12/24 05:01:25;;;;;;;0.40;0.40;;;9.20;99.90;;;;;;5046891;28;20127;-78
2023/12/24 05:03:50;;;;;;;1.10;0.50;;;9.20;99.90;;;;;;5052461;28;20048;-79
2023/12/24 05:06:17;;;;;;;0.75;0.75;;;9.20;99.90;;;;;;5051467;28;20418;-78
2023/12/24 05:08:43;;;;;;;0.40;0.40;;;9.20;99.90;;;;;;5052129;28;20418;-77
2023/12/24 05:11:09;;;;;;;0.43;0.43;;;9.20;99.90;;;;;;5047594;28;20037;-78
2023/12/24 05:13:35;;;;;;;0.40;0.40;;;9.20;99.90;;;;;;5054594;28;20115;-78
2023/12/24 05:16:05;;;;;;;0.60;0.60;;;9.30;99.90;;;;;;5051274;28;20413;-77
2023/12/24 05:18:32;;;;;;;0.73;0.73;;;9.20;99.90;;;;;;5057311;28;20116;-78
2023/12/24 05:20:58;;;;;;;0.40;0.40;;;9.30;99.90;;;;;;5060946;28;20052;-79
2023/12/24 05:23:25;;;;;;;0.57;0.57;;;9.30;99.90;;;;;;5051685;28;20091;-78
2023/12/24 05:25:51;;;;;;;0.40;0.40;;;9.30;99.90;;;;;;5055293;28;20418;-78
2023/12/24 05:28:17;;;;;;;0.50;0.50;;;9.30;99.90;;;;;;5054066;28;20055;-77
2023/12/24 05:30:43;;;;;;;0.50;0.50;;;9.30;99.90;;;;;;5047797;28;20044;-78
2023/12/24 05:33:09;;;;;;;0.50;0.50;;;9.30;99.90;;;;;;5059107;28;20064;-79
2023/12/24 05:35:35;;;;;;;0.50;0.50;;;9.30;99.90;;;;;;5055427;28;20259;-78
2023/12/24 05:38:00;;;;;;;0.60;0.60;;;9.40;99.90;;;;;;5050727;28;20056;-78
2023/12/24 05:40:26;;;;;;;0.50;0.50;;;9.30;99.90;;;;;;5053403;28;20599;-79
2023/12/24 05:42:51;;;;;;;0.93;0.82;;;9.40;99.90;;;;;;5054133;28;20077;-78
2023/12/24 05:45:17;;;;;;;0.38;0.38;;;9.40;99.90;;;;;;5056979;28;20060;-79
2023/12/24 05:47:42;;;;;;;0.70;0.70;;;9.40;99.90;;;;;;5052844;28;20048;-78
2023/12/24 05:50:09;;;;;;;0.47;0.47;;;9.40;99.90;;;;;;5058815;28;20053;-78
2023/12/24 05:52:35;;;;;;;0.73;0.73;;;9.40;99.90;;;;;;5037932;28;20041;-80
2023/12/24 05:55:01;;;;;;;0.60;0.60;;;9.40;99.90;;;;;;5052973;28;20117;-79
2023/12/24 05:57:27;;;;;;;0.50;0.50;;;9.40;99.90;;;;;;5067736;28;20044;-79
2023/12/24 05:59:53;;;;;;;0.70;0.70;;;9.40;99.90;;;;;;5055229;28;20045;-79
2023/12/24 06:02:19;;;;;;;0.40;0.40;;;9.40;99.90;;;;;;5072272;28;20086;-79
2023/12/24 06:04:45;;;;;;;0.40;0.40;;;9.40;99.90;;;;;;5057850;28;20053;-79
2023/12/24 06:07:11;;;;;;;0.40;0.40;;;9.40;99.90;;;;;;5050023;28;20060;-78
2023/12/24 06:09:36;;;;;;;0.43;0.43;;;9.50;99.90;;;;;;5057728;28;20040;-79
2023/12/24 06:12:04;;;;;;;0.60;0.60;;;9.40;99.90;;;;;;5059940;28;20047;-79
2023/12/24 06:14:30;;;;;;;0.50;0.50;;;9.50;99.90;;;;;;5059154;28;20044;-79
2023/12/24 06:16:55;;;;;;;0.55;0.55;;;9.50;99.90;;;;;;5055203;28;20054;-78
2023/12/24 06:19:21;;;;;;;0.50;0.50;;;9.50;99.90;;;;;;5057299;28;20135;-78
2023/12/24 06:21:47;;;;;;;0.50;0.50;;;9.50;99.90;;;;;;5056707;28;20135;-79
2023/12/24 06:24:12;;;;;;;0.82;0.73;;;9.50;99.90;;;;;;5057623;28;20044;-78
2023/12/24 06:26:38;;;;;;;1.38;0.98;;;9.60;99.90;;;;;;5065782;28;20044;-79
2023/12/24 06:29:04;;;;;;;1.02;1.02;;;9.50;99.90;;;;;;5057153;28;20044;-79
2023/12/24 06:31:29;;;;;;;0.50;0.50;;;9.50;99.90;;;;;;5059107;28;20037;-80
2023/12/24 06:33:55;;;;;;;0.70;0.70;;;9.50;99.90;;;;;;5057777;28;20055;-79
2023/12/24 06:36:20;;;;;;;0.50;0.50;;;9.50;99.90;;;;;;5060407;28;20072;-79
2023/12/24 06:38:46;;;;;;;0.65;0.65;;;9.60;99.90;;;;;;5058003;28;20496;-79
2023/12/24 06:41:13;;;;;;;0.65;0.65;;;9.60;99.90;;;;;;5052463;28;20067;-79
2023/12/24 06:43:38;;;;;;;0.73;0.73;;;9.60;99.90;;;;;;5060353;28;20537;-79
2023/12/24 06:46:11;;;;;;;0.30;0.30;;;9.60;99.90;;;;;;5053059;28;20140;-79
2023/12/24 06:48:38;;;;;;;14.63;1.55;;;9.70;99.90;;;;;;5052862;28;20052;-79
2023/12/24 06:51:04;;;;;;;0.73;0.73;;;9.60;99.90;;;;;;5050365;28;20461;-78
2023/12/24 06:53:29;;;;;;;0.75;0.75;;;9.60;99.90;;;;;;5060720;28;20048;-79
2023/12/24 06:55:55;;;;;;;1.23;1.13;;;9.70;99.90;;;;;;5060363;28;20045;-79
2023/12/24 06:58:21;;;;;;;0.60;0.60;;;9.70;99.90;;;;;;5051748;28;20044;-78
2023/12/24 07:00:47;;;;;;;0.50;0.50;;;9.70;99.90;;;;;;5058345;28;20048;-79
2023/12/24 07:03:12;;;;;;;0.57;0.57;;;9.70;99.90;;;;;;5058770;28;20072;-78
2023/12/24 07:05:38;;;;;;;0.63;0.63;;;9.70;99.90;;;;;;5051850;28;20572;-78
2023/12/24 07:08:07;;;;;;;0.45;0.45;;;9.70;99.90;;;;;;5034442;28;20486;-78
2023/12/24 07:10:33;;;;;;;0.77;0.55;;;9.80;99.90;;;;;;5057635;28;20049;-79
2023/12/24 07:12:58;;;;;;;0.77;0.77;;;9.80;99.90;;;;;;5057688;28;20041;-78
2023/12/24 07:15:24;;;;;;;2.47;0.85;;;9.80;99.90;;;;;;5055533;28;20040;-78
2023/12/24 07:17:50;;;;;;;0.57;0.57;;;9.80;99.90;;;;;;5061560;28;20056;-78
2023/12/24 07:20:16;;;;;;;0.70;0.70;;;9.80;99.90;;;;;;5055148;28;20056;-79
2023/12/24 07:22:42;;;;;;;0.70;0.65;;;9.80;99.90;;;;;;5057503;28;20052;-78
2023/12/24 07:25:09;;;;;;;0.65;0.65;;;9.80;99.90;;;;;;5051316;28;20726;-79
2023/12/24 07:27:35;;;;;;;1.05;1.00;;;9.90;99.90;;;;;;5063638;28;20503;-79
2023/12/24 07:30:00;;;;;;;0.88;0.88;;;9.90;99.90;;;;;;5060005;28;20045;-78
2023/12/24 07:32:26;;;;;;;1.38;1.27;;;9.90;99.90;;;;;;5054248;28;20045;-79
2023/12/24 07:34:52;;;;;;;1.95;0.75;;;9.90;99.90;;;;;;5047145;28;20052;-79
2023/12/24 07:37:17;;;;;;;1.00;1.00;;;9.90;99.90;;;;;;5053975;28;20033;-79
2023/12/24 07:39:43;;;;;;;2.45;1.33;;;9.90;99.90;;;;;;5052387;28;20138;-78
2023/12/24 07:42:09;;;;;;;0.60;0.60;;;10.00;99.90;;;;;;5048943;28;20041;-79
2023/12/24 07:44:34;;;;;;;1.88;1.60;;;10.00;99.90;;;;;;5052239;28;20052;-79
2023/12/24 07:47:00;;;;;;;0.88;0.80;;;10.00;99.90;;;;;;5058623;28;20121;-79
2023/12/24 07:49:26;;;;;;;0.63;0.63;;;10.00;99.90;;;;;;5053080;28;20045;-79
2023/12/24 07:51:52;;;;;;;0.50;0.50;;;10.00;99.90;;;;;;5053239;28;20063;-78
2023/12/24 07:54:18;;;;;;;1.10;1.00;;;10.00;99.90;;;;;;5053224;28;20044;-79
2023/12/24 07:56:44;;;;;;;1.40;1.30;;;10.10;99.90;;;;;;5054134;28;20082;-78
2023/12/24 07:59:09;;;;;;;0.90;0.90;;;10.10;99.90;;;;;;5049355;28;20056;-77
2023/12/24 08:01:37;;;;;;;0.75;0.75;;;10.10;99.90;;;;;;5047347;28;20045;-79
2023/12/24 08:04:04;;;;;;;1.08;0.88;;;10.10;99.90;;;;;;5055238;28;20053;-78
2023/12/24 08:06:29;;;;;;;0.77;0.77;;;10.10;99.90;;;;;;5061358;28;20501;-78
2023/12/24 08:08:58;;;;;;;1.35;0.95;;;10.10;99.90;;;;;;5057494;28;20095;-78
2023/12/24 08:11:25;;;;;;;1.65;1.30;;;10.10;99.90;;;;;;5052123;28;20493;-78
2023/12/24 08:13:51;;;;;;;0.67;0.67;;;10.10;99.90;;;;;;5064766;28;20497;-78
2023/12/24 08:16:18;;;;;;;0.82;0.82;;;10.20;99.90;;;;;;5059919;28;20303;-77
2023/12/24 08:18:43;;;;;;;1.65;1.55;;;10.20;99.90;;;;;;5058390;28;20052;-77
2023/12/24 08:21:10;;;;;;;8.38;2.03;;;10.20;99.90;;;;;;5058700;28;20456;-78
2023/12/24 08:23:37;;;;;;;1.70;0.73;;;10.20;99.90;;;;;;5062137;28;20060;-77
2023/12/24 08:26:04;;;;;;;0.77;0.77;;;10.20;99.90;;;;;;5065375;28;20106;-78
2023/12/24 08:28:29;;;;;;;2.15;0.95;;;10.20;99.90;;;;;;5056286;28;20040;-78
2023/12/24 08:30:55;;;;;;;0.60;0.60;;;10.20;99.90;;;;;;5050144;28;20613;-78
2023/12/24 08:33:21;;;;;;;0.45;0.45;;;10.20;99.90;;;;;;5053031;28;20074;-78
2023/12/24 08:35:46;;;;;;;1.58;1.48;;;10.20;99.90;;;;;;5058117;28;20833;-79
2023/12/24 08:38:12;;;;;;;1.52;1.05;;;10.30;99.90;;;;;;5054945;28;20043;-79
2023/12/24 08:40:37;;;;;;;1.02;0.90;;;10.30;99.90;;;;;;5053488;28;20157;-78
2023/12/24 08:43:05;;;;;;;2.60;1.08;;;10.30;99.90;;;;;;5054509;28;20098;-78
2023/12/24 08:45:30;;;;;;;2.38;1.65;;;10.30;99.90;;;;;;5051677;28;20048;-79
2023/12/24 08:47:56;;;;;;;0.50;0.50;;;10.30;99.90;;;;;;5052662;28;20056;-79
2023/12/24 08:50:21;;;;;;;1.08;1.08;;;10.30;99.90;;;;;;5036794;28;20051;-78
2023/12/24 08:52:48;;;;;;;1.95;0.70;;;10.30;99.90;;;;;;5057013;28;20048;-78
2023/12/24 08:55:15;;;;;;;2.50;1.33;;;10.30;99.90;;;;;;5054914;28;20651;-78
2023/12/24 08:57:41;;;;;;;0.80;0.80;;;10.30;99.90;;;;;;5056519;28;20052;-77
2023/12/24 09:00:11;;;;;;;0.68;0.68;;;10.30;99.90;;;;;;5048043;28;20442;-79
2023/12/24 09:02:38;;;;;;;11.60;0.95;;;10.40;99.90;;;;;;5055216;28;20502;-77
2023/12/24 09:05:07;;;;;;;0.88;0.88;;;10.40;99.90;;;;;;5054509;28;20083;-78
2023/12/24 09:07:33;;;;;;;1.33;1.13;;;10.40;99.90;;;;;;5043464;28;20056;-78
2023/12/24 09:09:58;;;;;;;0.52;0.52;;;10.40;99.90;;;;;;5056688;28;20060;-78
2023/12/24 09:12:24;;;;;;;1.00;1.00;;;10.40;99.90;;;;;;5058638;28;20040;-77
2023/12/24 09:14:50;;;;;;;1.20;0.98;;;10.40;99.90;;;;;;5068476;28;20040;-78
2023/12/24 09:17:15;;;;;;;1.23;1.13;;;10.50;99.90;;;;;;5064372;28;20040;-77
2023/12/24 09:19:41;;;;;;;0.93;0.93;;;10.40;99.90;;;;;;5062003;28;20498;-78
2023/12/24 09:22:06;;;;;;;0.57;0.57;;;10.50;99.90;;;;;;5053177;28;20124;-78
2023/12/24 09:24:32;;;;;;;1.67;1.15;;;10.50;99.90;;;;;;5051413;28;20044;-78
2023/12/24 09:26:58;;;;;;;0.50;0.50;;;10.50;99.90;;;;;;5050592;28;20041;-77
2023/12/24 09:29:24;;;;;;;0.50;0.50;;;10.50;99.90;;;;;;5068269;28;20059;-77
2023/12/24 09:31:49;;;;;;;2.40;2.05;;;10.50;99.90;;;;;;5058640;28;20044;-78
2023/12/24 09:34:15;;;;;;;1.13;0.55;;;10.60;99.90;;;;;;5057448;28;20274;-78
2023/12/24 09:36:41;;;;;;;1.02;1.02;;;10.60;99.90;;;;;;5055923;28;20064;-78
2023/12/24 09:39:06;;;;;;;0.60;0.60;;;10.60;99.90;;;;;;5054109;28;20063;-77
2023/12/24 09:41:32;;;;;;;0.73;0.73;;;10.60;99.90;;;;;;5055604;28;20055;-77
2023/12/24 09:43:58;;;;;;;0.50;0.50;;;10.60;99.90;;;;;;5056681;28;20045;-77
2023/12/24 09:46:23;;;;;;;0.40;0.40;;;10.60;99.90;;;;;;5054650;28;20080;-76
2023/12/24 09:48:49;;;;;;;0.70;0.70;;;10.60;99.90;;;;;;5059806;28;20044;-77
2023/12/24 09:51:15;;;;;;;0.43;0.43;;;10.60;99.90;;;;;;5052180;28;20248;-77
2023/12/24 09:53:45;;;;;;;0.75;0.75;;;10.70;99.90;;;;;;5053440;28;20040;-77
2023/12/24 09:56:10;;;;;;;0.98;0.98;;;10.70;99.90;;;;;;5057622;28;20123;-77
2023/12/24 09:58:36;;;;;;;0.77;0.77;;;10.70;99.90;;;;;;5054478;28;20048;-78
2023/12/24 10:01:01;;;;;;;1.27;1.27;;;10.70;99.90;;;;;;5047403;28;20451;-77
2023/12/24 10:03:27;;;;;;;0.47;0.47;;;10.70;99.90;;;;;;5059522;28;20066;-77
2023/12/24 10:06:07;;;;;;;0.40;0.40;;;10.70;99.90;;;;;;5057843;28;20064;-77
2023/12/24 10:08:33;;;;;;;1.33;0.55;;;10.80;99.90;;;;;;5052028;28;20048;-78
2023/12/24 10:11:23;;;;;;;2.50;1.20;;;10.80;99.90;;;;;;5052838;28;21289;-78
2023/12/24 10:13:58;;;;;;;0.60;0.60;;;10.80;99.90;;;;;;5054522;28;20037;-78
2023/12/24 10:16:25;;;;;;;0.60;0.60;;;10.80;99.90;;;;;;5052713;28;20044;-78
2023/12/24 10:18:50;;;;;;;0.70;0.70;;;10.80;99.90;;;;;;5054093;28;20517;-78
2023/12/24 10:21:18;;;;;;;0.40;0.40;;;10.80;99.90;;;;;;5051961;28;20126;-78
2023/12/24 10:23:44;;;;;;;0.90;0.90;;;10.90;99.90;;;;;;5051438;28;20048;-78
2023/12/24 10:26:11;;;;;;;0.68;0.60;;;10.90;99.90;;;;;;5036788;28;20049;-78
2023/12/24 10:28:50;;;;;;;0.82;0.82;;;10.90;99.90;;;;;;5058182;28;20517;-78
2023/12/24 10:31:16;;;;;;;0.55;0.55;;;11.00;99.90;;;;;;5055485;28;20060;-78
2023/12/24 10:33:42;;;;;;;0.70;0.70;;;10.90;99.90;;;;;;5054621;28;20037;-79
2023/12/24 10:36:08;;;;;;;2.13;1.27;;;10.90;99.90;;;;;;5057529;28;20097;-77
2023/12/24 10:38:35;;;;;;;1.05;1.05;;;10.90;99.90;;;;;;5055806;28;20056;-77
2023/12/24 10:41:02;;;;;;;0.82;0.60;;;11.00;99.90;;;;;;5053604;28;20068;-77
2023/12/24 10:43:28;;;;;;;1.35;1.25;;;11.00;99.90;;;;;;5050964;28;20171;-78
2023/12/24 10:45:55;;;;;;;0.40;0.40;;;11.00;99.90;;;;;;5032075;28;20155;-78
2023/12/24 10:48:21;;;;;;;1.10;1.00;;;11.00;99.90;;;;;;5052725;28;20449;-78
2023/12/24 10:50:47;;;;;;;0.40;0.40;;;11.00;99.90;;;;;;5058381;28;20138;-79
2023/12/24 10:53:15;;;;;;;0.47;0.47;;;11.00;99.90;;;;;;5053161;28;20393;-77
2023/12/24 10:55:44;;;;;;;;;;;11.00;99.90;;;;;;5054769;28;20048;-79
2023/12/24 10:58:34;;;;;;;0.52;0.52;;;11.10;99.90;;;;;;5053379;28;19921;-79
2023/12/24 11:01:08;;;;;;;0.50;0.50;;;11.10;99.90;;;;;;5048709;28;20053;-78
2023/12/24 11:03:45;;;;;;;0.60;0.60;;;11.10;99.90;;;;;;5052210;28;20049;-78
2023/12/24 11:06:11;;;;;;;1.25;1.23;;;11.20;99.90;;;;;;5053104;28;20517;-79
2023/12/24 11:08:36;;;;;;;0.77;0.77;;;11.20;99.90;;;;;;5050862;28;20441;-78
2023/12/24 11:11:04;;;;;;;0.57;0.57;;;11.20;99.90;;;;;;5056164;28;20036;-78
2023/12/24 11:13:33;;;;;;;0.40;0.40;;;11.30;99.90;;;;;;5055970;28;20049;-79
2023/12/24 11:16:04;;;;;;;0.85;0.85;;;11.30;99.90;;;;;;5050080;28;20041;-79
2023/12/24 11:18:44;;;;;;;0.60;0.60;;;11.30;99.90;;;;;;5047068;28;20063;-79
2023/12/24 11:21:11;;;;;;;0.95;0.95;;;11.40;99.90;;;;;;5046005;28;20052;-78
2023/12/24 11:23:40;;;;;;;1.77;0.85;;;11.30;99.90;;;;;;5049415;28;20048;-78
2023/12/24 11:26:29;;;;;;;1.42;1.33;;;11.30;99.90;;;;;;5054142;28;20093;-79
2023/12/24 11:28:55;;;;;;;1.75;1.25;;;11.40;99.90;;;;;;5052394;28;20095;-79
2023/12/24 11:31:28;;;;;;;1.00;0.80;;;11.40;99.90;;;;;;5049688;28;20068;-79
2023/12/24 11:33:55;;;;;;;0.60;0.60;;;11.40;99.90;;;;;;5056741;28;20063;-78
2023/12/24 11:36:22;;;;;;;1.13;1.13;;;11.40;99.90;;;;;;5035998;28;20037;-78
2023/12/24 11:38:55;;;;;;;1.40;1.02;;;11.40;99.90;;;;;;5052164;28;20045;-79
2023/12/24 11:41:21;;;;;;;3.33;0.80;;;11.40;99.90;;;;;;5055366;28;20048;-80
2023/12/24 11:43:58;;;;;;;0.90;0.90;;;11.30;99.90;;;;;;5055506;28;20052;-80
2023/12/24 11:46:26;;;;;;;0.95;0.95;;;11.40;99.90;;;;;;5054022;28;20048;-79
2023/12/24 11:49:06;;;;;;;1.23;0.98;;;11.40;99.90;;;;;;5050978;28;20138;-79
2023/12/24 11:51:32;;;;;;;1.05;0.77;;;11.40;99.90;;;;;;5049878;28;20056;-80
2023/12/24 11:54:05;;;;;;;1.58;1.13;;;11.40;99.90;;;;;;5049923;28;20055;-80
2023/12/24 11:56:32;;;;;;;0.43;0.43;;;11.40;99.90;;;;;;5050531;28;20045;-79
2023/12/24 11:59:02;;;;;;;0.60;0.60;;;11.40;99.90;;;;;;5031224;28;20094;-80
2023/12/24 12:01:32;;;;;;;0.50;0.50;;;11.40;99.90;;;;;;5056510;28;20040;-79
2023/12/24 12:03:59;;;;;;;0.55;0.55;;;11.40;99.90;;;;;;5055131;28;20612;-80
2023/12/24 12:06:26;;;;;;;1.35;1.25;;;11.40;99.90;;;;;;5060493;28;20561;-80
2023/12/24 12:08:52;;;;;;;1.20;1.15;;;11.40;99.90;;;;;;5057678;28;20059;-80
2023/12/24 12:11:18;;;;;;;1.15;1.15;;;11.40;99.90;;;;;;5046809;28;20053;-80
2023/12/24 12:13:44;;;;;;;0.82;0.82;;;11.40;99.90;;;;;;5054078;28;20045;-80
2023/12/24 12:16:10;;;;;;;1.15;0.65;;;11.50;99.90;;;;;;5055665;28;20064;-80
2023/12/24 12:18:36;;;;;;;0.50;0.50;;;11.50;99.90;;;;;;5053504;28;20045;-80
2023/12/24 12:21:01;;;;;;;2.00;1.02;;;11.40;99.90;;;;;;5055549;28;20068;-80
2023/12/24 12:23:27;;;;;;;0.90;0.90;;;11.40;99.90;;;;;;5056220;28;20037;-80
2023/12/24 12:25:52;;;;;;;0.57;0.57;;;11.50;99.90;;;;;;5050539;28;20043;-80
2023/12/24 12:28:18;;;;;;;0.60;0.60;;;11.50;99.90;;;;;;5056746;28;20049;-80
2023/12/24 12:30:45;;;;;;;1.20;0.88;;;11.40;99.90;;;;;;5052997;28;20509;-78
2023/12/24 12:33:12;;;;;;;1.55;1.45;;;11.40;99.90;;;;;;5060490;28;20056;-79
2023/12/24 12:35:37;;;;;;;0.50;0.50;;;11.50;99.90;;;;;;5053236;28;20041;-78
2023/12/24 12:38:03;;;;;;;0.75;0.75;;;11.50;99.90;;;;;;5051964;28;20410;-78
2023/12/24 12:40:29;;;;;;;2.85;1.55;;;11.50;99.90;;;;;;5052276;28;20041;-79
2023/12/24 12:42:55;;;;;;;0.40;0.40;;;11.40;99.90;;;;;;5033940;28;20053;-78
2023/12/24 12:45:22;;;;;;;1.10;0.88;;;11.40;99.90;;;;;;5052755;28;20036;-77
2023/12/24 12:47:47;;;;;;;0.82;0.82;;;11.40;99.90;;;;;;5056385;28;20063;-78
2023/12/24 12:50:13;;;;;;;0.55;0.55;;;11.40;99.90;;;;;;5053520;28;20040;-78